Terminal Aerodrome Forecast
Issued by NWS Atlanta, GA

Current Version | Previous Version | Text Only | Print | Product List | Glossary On
Versions: 1 2 3 4 5 6 7 8 9 10 11 12 13 14 15 16 17 18 19 20 21 22 23
000
FTUS42 KFFC 190520
TAFCSG
TAF
KCSG 190520Z 1906/2006 15003KT P6SM -RA OVC050
     FM190900 18006KT 4SM -SHRA BR OVC015
     FM191200 19006KT 4SM -SHRA BR OVC012
      TEMPO 1912/1915 4SM -TSRA BKN008CB
     FM191500 19008G16KT 4SM -TSRA BKN010CB OVC025
     FM191700 21010G18KT P6SM VCSH BKN015
     FM192100 21010G18KT P6SM VCSH BKN030=

USA.gov is the U.S. government's official web portal to all federal, state and local government web resources and services.